createdAt,value
2023-03-06T00:01:03.778Z,98672.63
2023-03-06T00:02:06.914Z,98663.22
2023-03-06T00:03:09.476Z,98669.50
2023-03-06T00:04:12.996Z,98661.91
2023-03-06T00:05:15.969Z,98657.56
2023-03-06T00:06:18.291Z,98657.78
2023-03-06T00:07:20.612Z,98664.78
2023-03-06T00:08:24.308Z,98657.69
2023-03-06T00:09:26.598Z,98654.94
2023-03-06T00:10:30.732Z,98668.88
2023-03-06T00:11:33.123Z,98663.81
2023-03-06T00:12:35.379Z,98663.06
2023-03-06T00:13:38.469Z,98662.16
2023-03-06T00:14:40.850Z,98660.41
2023-03-06T00:15:43.139Z,98658.75
2023-03-06T00:16:45.523Z,98659.75
2023-03-06T00:17:48.713Z,98661.44
2023-03-06T00:18:51.908Z,98653.66
2023-03-06T00:19:54.139Z,98658.59
2023-03-06T00:20:56.367Z,98652.47
2023-03-06T00:21:58.782Z,98643.72
2023-03-06T00:23:01.354Z,98649.78
2023-03-06T00:24:03.837Z,98651.69
2023-03-06T00:25:07.510Z,98641.44
2023-03-06T00:26:10.209Z,98644.19
2023-03-06T00:27:13.970Z,98645.88
2023-03-06T00:28:19.040Z,98646.81
2023-03-06T00:29:21.264Z,98648.56
2023-03-06T00:30:24.836Z,98651.94
2023-03-06T00:31:27.118Z,98652.94
2023-03-06T00:32:29.600Z,98651.19
2023-03-06T00:33:31.962Z,98650.34
2023-03-06T00:34:34.253Z,98652.00
2023-03-06T00:35:38.769Z,98639.84
2023-03-06T00:36:41.736Z,98650.34
2023-03-06T00:37:45.153Z,98638.34
2023-03-06T00:38:47.456Z,98650.31
2023-03-06T00:39:49.682Z,98645.22
2023-03-06T00:40:51.986Z,98639.81
2023-03-06T00:41:54.322Z,98638.00
2023-03-06T00:42:56.584Z,98645.59
2023-03-06T00:43:58.866Z,98642.22
2023-03-06T00:45:01.112Z,98641.31
2023-03-06T00:46:03.888Z,98633.56
2023-03-06T00:47:06.359Z,98634.38
2023-03-06T00:48:09.149Z,98639.72
2023-03-06T00:49:11.319Z,98642.28
2023-03-06T00:50:13.756Z,98634.53
2023-03-06T00:51:17.177Z,98639.50
2023-03-06T00:52:19.883Z,98635.91
2023-03-06T00:53:22.113Z,98630.63
2023-03-06T00:54:24.676Z,98634.00
2023-03-06T00:55:26.980Z,98631.44
2023-03-06T00:56:30.021Z,98634.78
2023-03-06T00:57:32.326Z,98634.94
2023-03-06T00:58:34.998Z,98635.88
2023-03-06T00:59:37.257Z,98632.38
2023-03-06T01:00:39.454Z,98629.56
2023-03-06T01:01:42.213Z,98618.28
2023-03-06T01:02:44.626Z,98611.53
2023-03-06T01:03:46.961Z,98611.88
2023-03-06T01:04:49.346Z,98600.97
2023-03-06T01:05:51.602Z,98604.44
2023-03-06T01:06:54.024Z,98605.81
2023-03-06T01:07:56.336Z,98609.97
2023-03-06T01:08:58.593Z,98615.91
2023-03-06T01:10:00.879Z,98604.69
2023-03-06T01:11:03.121Z,98604.91
2023-03-06T01:12:05.565Z,98599.78
2023-03-06T01:13:09.596Z,98600.00
2023-03-06T01:14:11.977Z,98596.44
2023-03-06T01:15:14.836Z,98603.38
2023-03-06T01:16:19.009Z,98604.91
2023-03-06T01:17:24.020Z,98606.63
2023-03-06T01:18:26.314Z,98604.16
2023-03-06T01:19:28.557Z,98600.69
2023-03-06T01:20:31.197Z,98605.06
2023-03-06T01:21:34.226Z,98596.56
2023-03-06T01:22:36.493Z,98603.47
2023-03-06T01:23:38.744Z,98607.66
2023-03-06T01:24:40.955Z,98608.56
2023-03-06T01:25:43.186Z,98600.78
2023-03-06T01:26:45.485Z,98595.66
2023-03-06T01:27:47.937Z,98595.91
2023-03-06T01:28:50.098Z,98595.91
2023-03-06T01:29:52.311Z,98588.03
2023-03-06T01:30:54.526Z,98600.00
2023-03-06T01:31:56.984Z,98594.84
2023-03-06T01:32:59.350Z,98587.97
2023-03-06T01:34:01.892Z,98588.00
2023-03-06T01:35:04.356Z,98588.03
2023-03-06T01:36:08.847Z,98593.94
2023-03-06T01:37:11.108Z,98586.22
2023-03-06T01:38:14.004Z,98582.75
2023-03-06T01:39:16.280Z,98584.31
2023-03-06T01:40:18.524Z,98579.88
2023-03-06T01:41:21.493Z,98586.91
2023-03-06T01:42:23.900Z,98575.72
2023-03-06T01:43:29.752Z,98578.59
2023-03-06T01:44:32.046Z,98581.19
2023-03-06T01:45:34.373Z,98572.53
2023-03-06T01:46:44.613Z,98574.31
2023-03-06T01:47:46.965Z,98574.34
2023-03-06T01:48:54.843Z,98565.66
2023-03-06T01:50:00.416Z,98571.78
2023-03-06T01:51:02.722Z,98563.41
2023-03-06T01:52:12.436Z,98557.31
2023-03-06T01:53:15.331Z,98558.25
2023-03-06T01:54:25.356Z,98558.13
2023-03-06T01:55:34.116Z,98559.69
2023-03-06T01:56:37.582Z,98554.44
2023-03-06T01:57:50.072Z,98539.81
2023-03-06T01:58:52.902Z,98539.03
2023-03-06T02:02:11.295Z,98543.63
2023-03-06T02:03:21.462Z,98542.75
2023-03-06T02:04:24.556Z,98547.03
2023-03-06T02:05:26.889Z,98546.97
2023-03-06T02:06:29.139Z,98541.88
2023-03-06T02:07:32.030Z,98540.41
2023-03-06T02:08:34.440Z,98525.13
2023-03-06T02:09:38.426Z,98538.09
2023-03-06T02:11:05.719Z,98521.50
2023-03-06T02:12:11.818Z,98530.84
2023-03-06T02:13:14.024Z,98534.28
2023-03-06T02:14:17.214Z,98535.09
2023-03-06T02:15:23.463Z,98526.56
2023-03-06T02:16:30.210Z,98535.22
2023-03-06T02:17:34.811Z,98529.97
2023-03-06T02:18:38.785Z,98535.91
2023-03-06T02:20:22.588Z,98531.06
2023-03-06T02:21:29.028Z,98530.97
2023-03-06T02:22:46.281Z,98529.28
2023-03-06T02:24:02.973Z,98526.63
2023-03-06T02:25:30.371Z,98527.69
2023-03-06T02:26:34.495Z,98529.44
2023-03-06T02:27:36.759Z,98520.94
2023-03-06T02:28:39.885Z,98527.75
2023-03-06T02:29:44.421Z,98514.84
2023-03-06T02:30:49.693Z,98519.03
2023-03-06T02:31:52.298Z,98512.06
2023-03-06T02:32:54.708Z,98519.72
2023-03-06T02:34:15.928Z,98511.81
2023-03-06T02:35:25.386Z,98513.44
2023-03-06T02:36:27.855Z,98500.41
2023-03-06T02:37:30.306Z,98513.09
2023-03-06T02:38:41.010Z,98507.94
2023-03-06T02:39:48.329Z,98509.66
2023-03-06T02:40:52.296Z,98508.72
2023-03-06T02:41:54.577Z,98500.03
2023-03-06T02:42:59.297Z,98509.44
2023-03-06T02:44:01.767Z,98505.25
2023-03-06T02:45:07.477Z,98504.13
2023-03-06T02:46:09.673Z,98508.47
2023-03-06T02:47:11.890Z,98495.59
2023-03-06T02:48:15.737Z,98495.50
2023-03-06T02:49:17.970Z,98507.88
2023-03-06T02:50:20.228Z,98498.56
2023-03-06T02:51:23.890Z,98503.75
2023-03-06T02:52:26.090Z,98500.31
2023-03-06T02:53:28.639Z,98502.00
2023-03-06T02:54:30.900Z,98495.84
2023-03-06T02:55:33.993Z,98496.50
2023-03-06T02:56:37.024Z,98491.31
2023-03-06T02:57:39.367Z,98487.84
2023-03-06T02:58:41.646Z,98498.25
2023-03-06T02:59:43.869Z,98494.63
2023-03-06T03:00:47.331Z,98490.94
2023-03-06T03:01:49.548Z,98495.38
2023-03-06T03:02:52.890Z,98488.56
2023-03-06T03:03:55.535Z,98486.84
2023-03-06T03:04:57.983Z,98491.97
2023-03-06T03:06:00.902Z,98492.28
2023-03-06T03:07:08.115Z,98484.50
2023-03-06T03:08:10.952Z,98483.63
2023-03-06T03:09:13.206Z,98491.53
2023-03-06T03:10:16.285Z,98482.72
2023-03-06T03:11:20.293Z,98489.47
2023-03-06T03:12:23.168Z,98490.16
2023-03-06T03:13:25.396Z,98487.19
2023-03-06T03:14:27.756Z,98491.66
2023-03-06T03:15:30.083Z,98487.22
2023-03-06T03:16:33.163Z,98488.88
2023-03-06T03:17:37.066Z,98483.72
2023-03-06T03:18:39.368Z,98477.69
2023-03-06T03:19:41.608Z,98485.47
2023-03-06T03:20:43.964Z,98488.06
2023-03-06T03:21:46.264Z,98483.88
2023-03-06T03:22:53.737Z,98484.69
2023-03-06T03:23:56.035Z,98479.66
2023-03-06T03:25:01.114Z,98483.94
2023-03-06T03:26:18.623Z,98477.94
2023-03-06T03:27:28.260Z,98477.00
2023-03-06T03:28:30.545Z,98481.09
2023-03-06T03:29:33.005Z,98485.44
2023-03-06T03:30:35.331Z,98481.91
2023-03-06T03:31:37.773Z,98474.31
2023-03-06T03:32:40.259Z,98470.03
2023-03-06T03:33:42.649Z,98470.09
2023-03-06T03:34:45.121Z,98472.53
2023-03-06T03:35:56.730Z,98468.41
2023-03-06T03:36:59.618Z,98477.03
2023-03-06T03:38:02.729Z,98476.91
2023-03-06T03:39:05.543Z,98478.63
2023-03-06T03:40:10.173Z,98469.81
2023-03-06T03:41:12.724Z,98481.97
2023-03-06T03:42:15.066Z,98472.19
2023-03-06T03:43:17.839Z,98472.28
2023-03-06T03:44:20.120Z,98467.94
2023-03-06T03:45:23.506Z,98464.53
2023-03-06T03:46:26.149Z,98465.44
2023-03-06T03:47:30.466Z,98468.03
2023-03-06T03:48:32.937Z,98459.53
2023-03-06T03:49:35.712Z,98466.56
2023-03-06T03:50:38.792Z,98458.94
2023-03-06T03:51:41.548Z,98459.97
2023-03-06T03:52:43.941Z,98466.94
2023-03-06T03:53:47.559Z,98462.09
2023-03-06T03:54:53.446Z,98467.56
2023-03-06T03:55:55.665Z,98470.25
2023-03-06T03:56:57.996Z,98467.00
2023-03-06T03:58:05.541Z,98457.91
2023-03-06T03:59:08.425Z,98465.75
2023-03-06T04:00:18.023Z,98460.41
2023-03-06T04:01:30.153Z,98462.75
2023-03-06T04:02:32.368Z,98459.97
2023-03-06T04:03:43.956Z,98457.66
2023-03-06T04:04:48.318Z,98457.88
2023-03-06T04:05:53.926Z,98456.16
2023-03-06T04:06:56.324Z,98449.22
2023-03-06T04:08:01.231Z,98453.72
2023-03-06T04:09:04.501Z,98453.94
2023-03-06T04:10:08.444Z,98449.66
2023-03-06T04:11:11.142Z,98447.81
2023-03-06T04:12:13.362Z,98446.78
2023-03-06T04:13:15.812Z,98451.78
2023-03-06T04:14:20.793Z,98453.50
2023-03-06T04:15:23.615Z,98445.59
2023-03-06T04:16:25.958Z,98452.22
2023-03-06T04:17:28.239Z,98447.00
2023-03-06T04:18:31.286Z,98442.66
2023-03-06T04:19:38.131Z,98434.81
2023-03-06T04:20:40.351Z,98439.13
2023-03-06T04:21:42.672Z,98439.06
2023-03-06T04:22:45.948Z,98438.25
2023-03-06T04:23:48.430Z,98441.75
2023-03-06T04:24:50.794Z,98440.72
2023-03-06T04:25:54.553Z,98432.81
2023-03-06T04:26:57.744Z,98430.06
2023-03-06T04:28:00.284Z,98434.25
2023-03-06T04:29:04.008Z,98432.59
2023-03-06T04:30:07.960Z,98435.97
2023-03-06T04:31:13.019Z,98438.53
2023-03-06T04:32:15.514Z,98422.94
2023-03-06T04:33:18.169Z,98424.88
2023-03-06T04:34:20.855Z,98426.84
2023-03-06T04:35:23.288Z,98423.69
2023-03-06T04:36:34.482Z,98427.94
2023-03-06T04:37:41.539Z,98427.19
2023-03-06T04:38:43.849Z,98424.94
2023-03-06T04:39:46.678Z,98428.44
2023-03-06T04:40:49.737Z,98425.91
2023-03-06T04:41:52.114Z,98434.50
2023-03-06T04:42:58.124Z,98428.69
2023-03-06T04:44:00.439Z,98413.91
2023-03-06T04:45:02.810Z,98426.44
2023-03-06T04:46:05.489Z,98419.31
2023-03-06T04:47:07.920Z,98424.31
2023-03-06T04:48:14.355Z,98422.56
2023-03-06T04:49:16.613Z,98420.91
2023-03-06T04:50:19.305Z,98423.50
2023-03-06T04:51:21.924Z,98416.44
2023-03-06T04:52:24.107Z,98415.91
2023-03-06T04:53:26.799Z,98410.63
2023-03-06T04:54:29.286Z,98408.91
2023-03-06T04:55:31.630Z,98412.22
2023-03-06T04:56:34.504Z,98410.41
2023-03-06T04:57:38.254Z,98406.16
2023-03-06T04:58:40.813Z,98415.22
2023-03-06T04:59:43.011Z,98414.34
2023-03-06T05:00:45.317Z,98414.13
2023-03-06T05:01:47.644Z,98419.97
2023-03-06T05:02:51.081Z,98412.84
2023-03-06T05:03:53.295Z,98413.66
2023-03-06T05:04:55.551Z,98417.91
2023-03-06T05:05:58.502Z,98417.75
2023-03-06T05:07:00.839Z,98416.06
2023-03-06T05:08:03.258Z,98406.59
2023-03-06T05:09:05.650Z,98406.47
2023-03-06T05:10:11.554Z,98410.81
2023-03-06T05:11:13.844Z,98410.28
2023-03-06T05:12:16.129Z,98416.16
2023-03-06T05:13:18.458Z,98410.09
2023-03-06T05:14:20.687Z,98405.81
2023-03-06T05:15:23.733Z,98413.13
2023-03-06T05:16:26.279Z,98408.56
2023-03-06T05:17:28.530Z,98416.16
2023-03-06T05:18:31.666Z,98407.91
2023-03-06T05:19:33.913Z,98408.88
2023-03-06T05:20:36.114Z,98411.22
2023-03-06T05:21:38.383Z,98408.44
2023-03-06T05:22:41.077Z,98404.91
2023-03-06T05:23:43.295Z,98403.00
2023-03-06T05:24:45.620Z,98400.38
2023-03-06T05:25:47.898Z,98410.81
2023-03-06T05:26:50.163Z,98400.88
2023-03-06T05:27:52.419Z,98398.28
2023-03-06T05:28:55.296Z,98408.78
2023-03-06T05:29:57.799Z,98405.56
2023-03-06T05:31:01.745Z,98401.31
2023-03-06T05:32:05.820Z,98405.50
2023-03-06T05:33:08.181Z,98400.50
2023-03-06T05:34:14.219Z,98402.94
2023-03-06T05:35:21.806Z,98402.66
2023-03-06T05:36:25.118Z,98398.25
2023-03-06T05:37:27.325Z,98394.69
2023-03-06T05:38:29.668Z,98393.84
2023-03-06T05:39:31.876Z,98396.34
2023-03-06T05:40:34.251Z,98398.03
2023-03-06T05:41:36.385Z,98402.25
2023-03-06T05:42:38.651Z,98398.97
2023-03-06T05:43:41.391Z,98401.16
2023-03-06T05:44:43.822Z,98395.00
2023-03-06T05:45:46.212Z,98393.22
2023-03-06T05:46:49.793Z,98398.59
2023-03-06T05:47:51.962Z,98396.66
2023-03-06T05:48:55.302Z,98394.84
2023-03-06T05:49:57.574Z,98396.31
2023-03-06T05:51:01.136Z,98400.69
2023-03-06T05:52:04.887Z,98391.78
2023-03-06T05:53:07.093Z,98393.31
2023-03-06T05:54:09.272Z,98392.09
2023-03-06T05:55:12.662Z,98393.66
2023-03-06T05:56:15.133Z,98390.09
2023-03-06T05:57:19.968Z,98400.53
2023-03-06T05:58:22.213Z,98395.16
2023-03-06T05:59:28.102Z,98396.84
2023-03-06T06:00:30.449Z,98398.00
2023-03-06T06:01:32.716Z,98391.13
2023-03-06T06:02:35.085Z,98388.66
2023-03-06T06:03:37.484Z,98394.13
2023-03-06T06:04:39.783Z,98396.09
2023-03-06T06:05:42.215Z,98399.56
2023-03-06T06:06:44.564Z,98395.34
2023-03-06T06:07:46.876Z,98395.97
2023-03-06T06:08:49.099Z,98396.00
2023-03-06T06:09:53.034Z,98397.47
2023-03-06T06:10:55.258Z,98399.13
2023-03-06T06:12:00.627Z,98402.53
2023-03-06T06:13:02.950Z,98399.03
2023-03-06T06:14:05.189Z,98398.91
2023-03-06T06:15:07.787Z,98397.63
2023-03-06T06:16:19.377Z,98399.13
2023-03-06T06:17:21.748Z,98399.63
2023-03-06T06:18:24.006Z,98400.91
2023-03-06T06:19:29.646Z,98400.84
2023-03-06T06:20:31.899Z,98394.25
2023-03-06T06:21:34.122Z,98388.97
2023-03-06T06:22:41.240Z,98397.75
2023-03-06T06:23:43.657Z,98397.97
2023-03-06T06:24:45.973Z,98403.22
2023-03-06T06:25:48.216Z,98398.16
2023-03-06T06:26:55.234Z,98396.38
2023-03-06T06:27:57.793Z,98402.63
2023-03-06T06:29:00.396Z,98398.31
2023-03-06T06:30:03.293Z,98401.75
2023-03-06T06:31:12.761Z,98409.88
2023-03-06T06:32:15.033Z,98412.38
2023-03-06T06:33:17.210Z,98409.28
2023-03-06T06:34:20.914Z,98404.09
2023-03-06T06:35:23.419Z,98410.97
2023-03-06T06:36:25.656Z,98406.69
2023-03-06T06:37:27.873Z,98415.19
2023-03-06T06:38:30.085Z,98404.59
2023-03-06T06:39:32.286Z,98404.75
2023-03-06T06:40:34.875Z,98401.53
2023-03-06T06:41:56.967Z,98418.78
2023-03-06T06:42:59.524Z,98411.94
2023-03-06T06:44:08.773Z,98410.81
2023-03-06T06:45:11.318Z,98410.97
2023-03-06T06:46:44.583Z,98409.78
2023-03-06T06:47:38.311Z,98412.75
2023-03-06T06:48:40.607Z,98416.25
2023-03-06T06:49:42.916Z,98409.91
2023-03-06T06:50:45.254Z,98413.97
2023-03-06T06:51:47.605Z,98410.41
2023-03-06T06:52:49.783Z,98415.63
2023-03-06T06:53:53.364Z,98413.91
2023-03-06T06:54:55.681Z,98409.69
2023-03-06T06:55:59.218Z,98403.16
2023-03-06T06:57:01.639Z,98424.56
2023-03-06T06:58:03.941Z,98407.97
2023-03-06T06:59:16.028Z,98413.66
2023-03-06T07:00:19.791Z,98414.63
2023-03-06T07:01:22.343Z,98412.31
2023-03-06T07:02:24.652Z,98417.75
2023-03-06T07:03:26.924Z,98412.63
2023-03-06T07:04:29.223Z,98415.75
2023-03-06T07:05:31.396Z,98414.94
2023-03-06T07:06:33.599Z,98421.63
2023-03-06T07:07:37.971Z,98422.03
2023-03-06T07:08:40.395Z,98420.78
2023-03-06T07:09:42.714Z,98422.75
2023-03-06T07:10:44.927Z,98422.69
2023-03-06T07:11:47.110Z,98431.22
2023-03-06T07:12:49.432Z,98429.94
2023-03-06T07:13:51.721Z,98421.56
2023-03-06T07:14:54.170Z,98427.63
2023-03-06T07:15:56.441Z,98424.28
2023-03-06T07:16:59.065Z,98432.84
2023-03-06T07:18:01.438Z,98424.97
2023-03-06T07:19:03.623Z,98429.88
2023-03-06T07:20:07.109Z,98428.72
2023-03-06T07:21:09.943Z,98422.31
2023-03-06T07:22:12.177Z,98426.28
2023-03-06T07:23:14.582Z,98425.91
2023-03-06T07:24:17.224Z,98436.75
2023-03-06T07:25:20.061Z,98436.16
2023-03-06T07:26:23.207Z,98430.16
2023-03-06T07:27:26.186Z,98439.41
2023-03-06T07:28:28.483Z,98441.53
2023-03-06T07:29:32.915Z,98436.81
2023-03-06T07:30:35.308Z,98436.03
2023-03-06T07:31:37.599Z,98436.28
2023-03-06T07:32:39.941Z,98441.81
2023-03-06T07:33:42.300Z,98433.06
2023-03-06T07:34:45.284Z,98448.72
2023-03-06T07:35:48.116Z,98442.81
2023-03-06T07:36:50.788Z,98437.97
2023-03-06T07:37:53.842Z,98438.97
2023-03-06T07:38:56.073Z,98444.09
2023-03-06T07:39:58.498Z,98439.16
2023-03-06T07:41:00.695Z,98437.06
2023-03-06T07:42:02.976Z,98439.59
2023-03-06T07:43:18.857Z,98440.53
2023-03-06T07:44:31.825Z,98439.72
2023-03-06T07:45:34.644Z,98434.63
2023-03-06T07:46:36.956Z,98433.72
2023-03-06T07:47:40.121Z,98440.41
2023-03-06T07:48:42.990Z,98438.91
2023-03-06T07:49:45.220Z,98444.38
2023-03-06T07:50:59.756Z,98443.69
2023-03-06T07:52:02.306Z,98437.69
2023-03-06T07:53:04.635Z,98441.53
2023-03-06T07:54:06.873Z,98440.88
2023-03-06T07:55:09.815Z,98443.88
2023-03-06T07:56:13.186Z,98444.25
2023-03-06T07:57:16.255Z,98443.47
2023-03-06T07:58:18.619Z,98440.13
2023-03-06T07:59:21.076Z,98443.59
2023-03-06T08:00:23.703Z,98440.13
2023-03-06T08:01:26.389Z,98439.94
2023-03-06T08:02:28.684Z,98444.25
2023-03-06T08:03:31.233Z,98436.31
2023-03-06T08:04:34.291Z,98438.28
2023-03-06T08:05:36.651Z,98448.66
2023-03-06T08:06:38.890Z,98446.56
2023-03-06T08:07:42.262Z,98442.41
2023-03-06T08:08:46.191Z,98440.56
2023-03-06T08:09:48.797Z,98446.19
2023-03-06T08:10:51.180Z,98444.44
2023-03-06T08:11:53.338Z,98442.16
2023-03-06T08:12:55.614Z,98442.88
2023-03-06T08:13:58.187Z,98446.84
2023-03-06T08:15:00.506Z,98432.06
2023-03-06T08:16:03.019Z,98436.63
2023-03-06T08:17:05.259Z,98441.19
2023-03-06T08:18:07.465Z,98443.34
2023-03-06T08:19:09.730Z,98451.78
2023-03-06T08:20:13.036Z,98444.75
2023-03-06T08:21:17.563Z,98454.41
2023-03-06T08:22:19.704Z,98446.41
2023-03-06T08:23:21.825Z,98454.31
2023-03-06T08:24:24.052Z,98458.66
2023-03-06T08:25:26.290Z,98447.09
2023-03-06T08:26:31.452Z,98448.50
2023-03-06T08:27:34.996Z,98452.31
2023-03-06T08:28:37.354Z,98457.38
2023-03-06T08:29:39.679Z,98461.19
2023-03-06T08:30:42.602Z,98452.63
2023-03-06T08:31:46.938Z,98463.66
2023-03-06T08:32:49.216Z,98464.53
2023-03-06T08:33:51.899Z,98453.81
2023-03-06T08:34:54.230Z,98458.03
2023-03-06T08:35:56.425Z,98457.81
2023-03-06T08:36:58.667Z,98459.53
2023-03-06T08:38:00.870Z,98464.69
2023-03-06T08:39:04.416Z,98468.34
2023-03-06T08:40:07.263Z,98462.16
2023-03-06T08:41:09.785Z,98465.38
2023-03-06T08:42:11.992Z,98464.50
2023-03-06T08:43:14.440Z,98465.41
2023-03-06T08:44:17.016Z,98459.22
2023-03-06T08:45:19.234Z,98469.97
2023-03-06T08:46:23.742Z,98464.09
2023-03-06T08:47:25.984Z,98459.66
2023-03-06T08:48:28.335Z,98460.19
2023-03-06T08:49:30.522Z,98470.19
2023-03-06T08:50:32.766Z,98464.22
2023-03-06T08:51:35.754Z,98456.81
2023-03-06T08:52:38.208Z,98465.72
2023-03-06T08:53:43.487Z,98462.41
2023-03-06T08:54:46.373Z,98461.56
2023-03-06T08:55:48.723Z,98469.28
2023-03-06T08:56:50.954Z,98459.91
2023-03-06T08:57:53.150Z,98467.25
2023-03-06T08:58:56.641Z,98465.06
2023-03-06T08:59:58.932Z,98461.59
2023-03-06T09:01:03.680Z,98463.41
2023-03-06T09:02:07.514Z,98461.56
2023-03-06T09:03:09.802Z,98469.41
2023-03-06T09:04:12.268Z,98466.81
2023-03-06T09:05:14.549Z,98467.75
2023-03-06T09:06:17.163Z,98468.00
2023-03-06T09:07:19.567Z,98451.69
2023-03-06T09:08:21.833Z,98467.44
2023-03-06T09:09:24.008Z,98469.06
2023-03-06T09:10:29.157Z,98469.31
2023-03-06T09:11:31.813Z,98456.66
2023-03-06T09:12:47.339Z,98463.19
2023-03-06T09:13:52.438Z,98470.16
2023-03-06T09:14:54.660Z,98473.53
2023-03-06T09:15:56.880Z,98468.81
2023-03-06T09:16:59.222Z,98469.53
2023-03-06T09:18:01.454Z,98474.00
2023-03-06T09:19:03.743Z,98469.78
2023-03-06T09:20:10.519Z,98470.94
2023-03-06T09:21:12.912Z,98467.34
2023-03-06T09:22:15.164Z,98464.59
2023-03-06T09:23:17.486Z,98465.31
2023-03-06T09:24:19.752Z,98458.34
2023-03-06T09:25:23.242Z,98467.19
2023-03-06T09:26:39.581Z,98464.81
2023-03-06T09:27:58.292Z,98468.94
2023-03-06T09:29:07.826Z,98465.47
2023-03-06T09:30:12.592Z,98465.84
2023-03-06T09:31:17.131Z,98460.75
2023-03-06T09:32:19.340Z,98465.94
2023-03-06T09:33:21.854Z,98474.34
2023-03-06T09:34:24.146Z,98469.28
2023-03-06T09:35:26.374Z,98472.09
2023-03-06T09:36:28.676Z,98471.28
2023-03-06T09:37:31.006Z,98475.88
2023-03-06T09:38:33.404Z,98465.94
2023-03-06T09:39:36.028Z,98468.69
2023-03-06T09:41:15.493Z,98477.78
2023-03-06T09:42:21.436Z,98468.78
2023-03-06T09:43:38.089Z,98466.97
2023-03-06T09:44:41.200Z,98465.19
2023-03-06T09:45:43.603Z,98466.97
2023-03-06T09:47:16.417Z,98474.75
2023-03-06T09:48:27.980Z,98478.44
2023-03-06T09:49:51.066Z,98475.31
2023-03-06T09:51:10.634Z,98472.31
2023-03-06T09:52:12.987Z,98479.44
2023-03-06T09:53:24.114Z,98479.09
2023-03-06T09:54:46.910Z,98478.38
2023-03-06T09:55:58.113Z,98479.34
2023-03-06T09:57:00.571Z,98469.13
2023-03-06T09:58:11.341Z,98477.13
2023-03-06T09:59:19.742Z,98474.75
2023-03-06T10:00:32.299Z,98474.59
2023-03-06T10:01:38.167Z,98472.59
2023-03-06T10:02:44.474Z,98471.72
2023-03-06T10:03:56.430Z,98472.47
2023-03-06T10:05:04.064Z,98466.38
2023-03-06T10:06:24.347Z,98471.19
2023-03-06T10:07:59.378Z,98472.66
2023-03-06T10:09:06.972Z,98472.31
2023-03-06T10:10:17.337Z,98474.72
2023-03-06T10:11:32.977Z,98475.47
2023-03-06T10:13:01.240Z,98472.50
2023-03-06T10:14:17.326Z,98481.16
2023-03-06T10:15:25.689Z,98471.94
2023-03-06T10:16:30.616Z,98472.63
2023-03-06T10:17:41.491Z,98473.63
2023-03-06T10:18:43.708Z,98480.16
2023-03-06T10:19:47.625Z,98466.81
2023-03-06T10:20:56.127Z,98474.34
2023-03-06T10:22:24.378Z,98476.75
2023-03-06T10:23:35.623Z,98472.59
2023-03-06T10:25:00.349Z,98475.09
2023-03-06T10:26:12.887Z,98468.53
2023-03-06T10:27:42.853Z,98473.53
2023-03-06T10:28:55.605Z,98473.84
2023-03-06T10:30:27.742Z,98475.97
2023-03-06T10:31:32.014Z,98472.56
2023-03-06T10:32:51.009Z,98466.44
2023-03-06T10:34:06.953Z,98473.81
2023-03-06T10:35:25.550Z,98467.63
2023-03-06T10:36:29.088Z,98467.66
2023-03-06T10:37:32.561Z,98472.47
2023-03-06T10:38:38.463Z,98468.16
2023-03-06T10:39:41.028Z,98472.88
2023-03-06T10:40:52.003Z,98471.88
2023-03-06T10:41:55.518Z,98463.91
2023-03-06T10:43:10.882Z,98477.56
2023-03-06T10:44:13.538Z,98473.16
2023-03-06T10:45:17.435Z,98469.59
2023-03-06T10:46:28.341Z,98466.25
2023-03-06T10:47:35.264Z,98470.59
2023-03-06T10:48:42.002Z,98471.81
2023-03-06T10:49:57.812Z,98473.28
2023-03-06T10:51:20.040Z,98463.94
2023-03-06T10:52:22.898Z,98471.75
2023-03-06T10:53:29.027Z,98472.28
2023-03-06T10:54:37.583Z,98470.72
2023-03-06T10:55:40.051Z,98475.66
2023-03-06T10:56:44.611Z,98466.00
2023-03-06T10:57:46.876Z,98474.06
2023-03-06T10:59:05.376Z,98469.09
2023-03-06T11:00:28.859Z,98464.84
2023-03-06T11:01:31.233Z,98463.31
2023-03-06T11:02:36.619Z,98461.50
2023-03-06T11:03:38.840Z,98456.41
2023-03-06T11:04:46.002Z,98456.97
2023-03-06T11:06:05.285Z,98457.25
2023-03-06T11:07:19.547Z,98457.69
2023-03-06T11:08:22.892Z,98455.88
2023-03-06T11:09:26.239Z,98455.50
2023-03-06T11:10:30.383Z,98467.75
2023-03-06T11:11:37.839Z,98456.84
2023-03-06T11:12:42.507Z,98460.66
2023-03-06T11:13:44.915Z,98448.25
2023-03-06T11:14:47.177Z,98459.34
2023-03-06T11:15:58.346Z,98467.88
2023-03-06T11:17:00.601Z,98464.56
2023-03-06T11:18:07.411Z,98453.78
2023-03-06T11:19:20.721Z,98453.03
2023-03-06T11:20:44.618Z,98455.88
2023-03-06T11:22:18.403Z,98458.94
2023-03-06T11:23:44.413Z,98455.16
2023-03-06T11:24:50.621Z,98451.66
2023-03-06T11:25:59.741Z,98446.66
2023-03-06T11:27:30.362Z,98447.97
2023-03-06T11:28:44.079Z,98444.41
2023-03-06T11:29:49.992Z,98439.28
2023-03-06T11:31:06.470Z,98441.63
2023-03-06T11:32:16.653Z,98453.56
2023-03-06T11:33:27.681Z,98445.66
2023-03-06T11:35:05.345Z,98445.44
2023-03-06T11:36:16.065Z,98442.38
2023-03-06T11:37:21.740Z,98437.63
2023-03-06T11:38:44.628Z,98440.41
2023-03-06T11:39:53.344Z,98439.75
2023-03-06T11:41:02.173Z,98430.81
2023-03-06T11:42:16.152Z,98425.19
2023-03-06T11:43:32.369Z,98434.72
2023-03-06T11:44:54.114Z,98443.81
2023-03-06T11:46:15.378Z,98433.06
2023-03-06T11:47:23.134Z,98435.50
2023-03-06T11:48:37.935Z,98428.50
2023-03-06T11:50:04.848Z,98434.66
2023-03-06T11:51:14.929Z,98437.75
2023-03-06T11:52:27.384Z,98432.28
2023-03-06T11:53:32.320Z,98429.69
2023-03-06T11:54:34.596Z,98425.91
2023-03-06T11:55:44.734Z,98430.59
2023-03-06T11:56:56.092Z,98426.63
2023-03-06T11:58:27.621Z,98423.91
2023-03-06T11:59:44.058Z,98420.22
2023-03-06T12:01:05.214Z,98424.75
2023-03-06T12:02:33.233Z,98426.09
2023-03-06T12:04:20.226Z,98414.41
2023-03-06T12:05:55.895Z,98416.75
2023-03-06T12:07:05.549Z,98422.78
2023-03-06T12:08:12.658Z,98413.06
2023-03-06T12:09:46.259Z,98416.41
2023-03-06T12:11:19.954Z,98414.59
2023-03-06T12:12:43.862Z,98417.72
2023-03-06T12:14:05.587Z,98411.78
2023-03-06T12:15:17.199Z,98410.25
2023-03-06T12:16:28.195Z,98416.91
2023-03-06T12:17:50.745Z,98414.00
2023-03-06T12:19:01.116Z,98409.66
2023-03-06T12:20:23.521Z,98414.63
2023-03-06T12:21:28.371Z,98406.81
2023-03-06T12:22:42.197Z,98409.72
2023-03-06T12:24:08.420Z,98407.84
2023-03-06T12:25:27.734Z,98398.81
2023-03-06T12:26:50.610Z,98414.63
2023-03-06T12:28:20.406Z,98403.69
2023-03-06T12:29:34.575Z,98401.22
2023-03-06T12:31:17.292Z,98397.25
2023-03-06T12:32:19.648Z,98392.50
2023-03-06T12:34:00.202Z,98399.75
2023-03-06T12:35:31.344Z,98404.78
2023-03-06T12:36:51.522Z,98391.63
2023-03-06T12:38:23.452Z,98402.31
2023-03-06T12:40:10.773Z,98395.84
2023-03-06T12:41:27.093Z,98396.19
2023-03-06T12:43:10.168Z,98392.94
2023-03-06T12:44:27.270Z,98399.44
2023-03-06T12:45:36.962Z,98394.81
2023-03-06T12:46:44.922Z,98400.31
2023-03-06T12:47:54.621Z,98390.69
2023-03-06T12:49:09.277Z,98393.56
2023-03-06T12:50:24.069Z,98392.13
2023-03-06T12:51:26.534Z,98390.28
2023-03-06T12:52:31.748Z,98387.22
2023-03-06T12:53:34.624Z,98387.75
2023-03-06T12:54:39.738Z,98378.53
2023-03-06T12:55:50.109Z,98380.06
2023-03-06T12:56:53.911Z,98386.38
2023-03-06T12:57:56.151Z,98380.03
2023-03-06T12:59:02.371Z,98371.41